• Join FlightAware (Why Join?)
  • Login
  • US Flag 
05:45PM EST


 

Airport Tracker/Info


-or-


 

Live Flight TrackerFlight Track Log ✈ AWI4042 ✈ 28-Jul-2013 ✈ KPHF - KPHL

Flight Track Log - Related Links

Times and Time Zones

All times are in EDT time to prevent confusion due to time zone crossing. See the AWI4042 flight status page for this flight to view local times or setup timezone preferences in your user account.

Time Position Orientation Groundspeed Altitude Reporting Facility
EDT Latitude Longitude Course Direction KTS MPH feet Rate Location/Type
06:54AM 37.1397 -76.4750 38° Northeast 181 208 800  Level Washington Center
06:55AM 37.1733 -76.4181 53° Northeast 230 265 3,000 2,160 Climbing Washington Center
06:56AM 37.2811 -76.3030 47° Northeast  Level FlightAware Approximate
06:56AM 37.2197 -76.3481 50° Northeast 275 316 5,200  Level Washington Center
06:57AM 37.3401 -76.2432 38° Northeast  Level FlightAware Approximate
06:57AM 37.2847 -76.2836 38° Northeast 302 348 7,400  Level Washington Center
06:57AM 37.3289 -76.2369 40° Northeast 318 366 8,800 2,040 Climbing Washington Center
06:58AM 37.3995 -76.1839 38° Northeast  Level FlightAware Approximate
06:58AM 37.3981 -76.1669 39° Northeast 326 375 11,200  Level Washington Center
06:59AM 37.4510 -76.1156 38° Northeast  Level FlightAware Approximate
06:59AM 37.4733 -76.1019 34° Northeast 326 375 13,500  Level Washington Center
07:00AM 37.5489 -76.0239 39° Northeast 332 382 15,500 1,980 Climbing Washington Center
07:01AM 37.6303 -75.9458 37° Northeast 345 397 17,500 1,680 Climbing Washington Center
07:02AM 37.7100 -75.8542 42° Northeast 364 419 19,000 720 Climbing Washington Center
07:03AM 37.7933 -75.7653 40° Northeast 381 438 19,000  Level Washington Center
07:04AM 37.8728 -75.6733 42° Northeast 386 444 19,000  Level Washington Center
07:05AM 37.9542 -75.5839 41° Northeast 386 444 19,000  Level Washington Center
07:06AM 38.0292 -75.5022 41° Northeast 376 433 19,000  Level Washington Center
07:07AM 38.1125 -75.4281 35° Northeast 370 426 19,000  Level Washington Center
07:08AM 38.2064 -75.3672 27° Northeast 365 420 19,000  Level Washington Center
07:09AM 38.2978 -75.3114 26° Northeast 365 420 19,000 -660 Level Washington Center
07:10AM 38.4019 -75.2472 26° Northeast 365 420 17,700 -1,260 Descending Washington Center
07:11AM 38.4936 -75.1911 26° Northeast 365 420 16,500 -1,320 Descending Washington Center
07:12AM 38.5872 -75.1322 26° Northeast 365 420 15,200 -780 Descending Washington Center
07:13AM 38.6786 -75.0731 27° Northeast 365 420 15,000 -120 Descending Washington Center
07:14AM 38.7658 -75.0139 28° Northeast 360 414 15,000 -180 Level Washington Center
07:15AM 38.8531 -74.9572 27° Northeast 355 409 14,700 -1,740 Descending Washington Center
07:16AM 38.9342 -74.9086 25° Northeast 342 394 11,600 -2,700 Descending Washington Center
07:17AM 39.0194 -74.8517 27° Northeast 336 387 9,400 -1,380 Descending Washington Center
07:18AM 39.0983 -74.8081 23° Northeast 325 374 8,900 -300 Descending Washington Center
07:19AM 39.1797 -74.8339 346° North 296 341 8,900  Level Washington Center
07:21AM 39.3000 -74.8833 342° North 300 345 9,000  Climbing Philadelphia TRACON
07:22AM 39.4000 -74.9167 346° North 300 345 9,000 -480 Level Philadelphia TRACON
07:23AM 39.4500 -74.9833 314° West 288 331 8,100 -960 Descending Philadelphia TRACON
07:24AM 39.5000 -75.0667 308° West 285 328 7,100 -1,080 Descending Philadelphia TRACON
07:25AM 39.5500 -75.1333 314° West 278 320 6,000 -960 Descending Philadelphia TRACON
07:26AM 39.6000 -75.2000 314° West 278 320 5,300 -1,080 Descending Philadelphia TRACON
07:27AM 39.6500 -75.2667 314° West 273 314 4,100 -900 Descending Philadelphia TRACON
07:28AM 39.7000 -75.3333 314° West 201 231 3,600 -960 Descending Philadelphia TRACON
07:29AM 39.7333 -75.3833 311° West 213 245 2,100 -900 Descending Philadelphia TRACON
07:30AM 39.7833 -75.4000 346° North 191 220 1,900 -300 Descending Philadelphia TRACON
07:31AM 39.8333 -75.3667 27° Northeast 179 206 1,600 -600 Descending Philadelphia TRACON
07:32AM 39.8500 -75.3167 67° East 142 163 800 -840 Descending Philadelphia TRACON